Other Surface Observations
Issued by NWS Great Falls, MT

Home | Current Version | Previous Version | Text Only | Print | Product List | Glossary On
Versions: 1 2 3 4 5 6 7 8 9 10 11 12 13 14 15 16 17 18 19 20 21 22 23 24 25 26 27 28 29 30 31 32 33 34 35 36 37 38 39 40 41 42 43 44 45 46 47 48 49 50
000
SXUS55 KTFX 261008
OSOTFX
AREA AWOS OBSERVATIONS
NATIONAL WEATHER SERVICE GREAT FALLS MT
0305 AM MST WED NOV 26 2014

METAR KPWD 261000Z AUTO 01005KT 5SM M12/M14 A3024 RMK PLENTYWOOD
METAR KPO1 261000Z AUTO 5SM M07/M09 A3025 RMK POPLAR
METAR K1S3 261000Z AUTO 00000KT 10SM M02/M04 A3019 RMK FORSYTH
METAR KS71 261000Z AUTO 00000KT 10SM M02/M04 A3020 RMK CHINOOK
METAR K6S0 261000Z AUTO 00000KT 1 1/4SM M04/M04 A3014 RMK BIG TIMBER
METAR K79S 261000Z AUTO 00000KT 7SM M01/M02 A3019 RMK FORT BENTON
METAR KEKS 261000Z AUTO 00000KT 10SM M01/M02 A3014 RMK ENNIS
METAR K38S 261000Z AUTO 00000KT 1SM M02/M02 A3013 RMK DEER LODGE
METAR KS59 261000Z AUTO 00000KT 1SM 00/M01 A3018 RMK LIBBY
METAR K88M 261000Z AUTO 00000KT 1SM 00/M01 A3018 RMK EUREKA



USA.gov is the U.S. government's official web portal to all federal, state and local government web resources and services.